sensor_id;sensor_type;location;lat;lon;timestamp;pressure;altitude;pressure_sealevel;temperature;humidity
75794;BME280;64418;47.536;19.074;2023-05-07T00:02:09;100305.81;;;16.02;74.46
75794;BME280;64418;47.536;19.074;2023-05-07T00:04:36;100319.75;;;16.00;75.01
75794;BME280;64418;47.536;19.074;2023-05-07T00:07:03;100315.00;;;15.96;75.94
75794;BME280;64418;47.536;19.074;2023-05-07T00:09:29;100320.62;;;15.89;76.99
75794;BME280;64418;47.536;19.074;2023-05-07T00:11:54;100320.38;;;15.79;77.53
75794;BME280;64418;47.536;19.074;2023-05-07T00:14:20;100314.50;;;15.70;77.70
75794;BME280;64418;47.536;19.074;2023-05-07T00:16:46;100318.16;;;15.64;78.18
75794;BME280;64418;47.536;19.074;2023-05-07T00:19:12;100328.75;;;15.61;78.86
75794;BME280;64418;47.536;19.074;2023-05-07T00:21:37;100316.41;;;15.58;79.02
75794;BME280;64418;47.536;19.074;2023-05-07T00:24:05;100319.97;;;15.59;78.86
75794;BME280;64418;47.536;19.074;2023-05-07T00:26:30;100312.00;;;15.57;79.14
75794;BME280;64418;47.536;19.074;2023-05-07T00:28:56;100317.97;;;15.54;79.53
75794;BME280;64418;47.536;19.074;2023-05-07T00:31:22;100315.94;;;15.50;80.35
75794;BME280;64418;47.536;19.074;2023-05-07T00:33:48;100329.81;;;15.48;80.43
75794;BME280;64418;47.536;19.074;2023-05-07T00:36:13;100322.34;;;15.43;80.88
75794;BME280;64418;47.536;19.074;2023-05-07T00:38:39;100325.78;;;15.39;80.84
75794;BME280;64418;47.536;19.074;2023-05-07T00:41:06;100325.91;;;15.32;81.44
75794;BME280;64418;47.536;19.074;2023-05-07T00:43:32;100323.53;;;15.24;81.93
75794;BME280;64418;47.536;19.074;2023-05-07T00:46:00;100326.62;;;15.16;82.33
75794;BME280;64418;47.536;19.074;2023-05-07T00:48:27;100336.84;;;15.09;82.93
75794;BME280;64418;47.536;19.074;2023-05-07T00:50:53;100332.91;;;15.05;83.16
75794;BME280;64418;47.536;19.074;2023-05-07T00:53:19;100336.97;;;15.03;83.40
75794;BME280;64418;47.536;19.074;2023-05-07T00:55:46;100336.97;;;15.03;83.47
75794;BME280;64418;47.536;19.074;2023-05-07T00:58:14;100335.03;;;15.03;83.63
75794;BME280;64418;47.536;19.074;2023-05-07T01:00:40;100326.41;;;15.06;83.65
75794;BME280;64418;47.536;19.074;2023-05-07T01:03:06;100333.97;;;15.16;83.35
75794;BME280;64418;47.536;19.074;2023-05-07T01:05:32;100327.81;;;15.20;83.60
75794;BME280;64418;47.536;19.074;2023-05-07T01:07:58;100334.59;;;15.29;82.74
75794;BME280;64418;47.536;19.074;2023-05-07T01:10:25;100325.44;;;15.35;82.52
75794;BME280;64418;47.536;19.074;2023-05-07T01:12:51;100327.44;;;15.40;82.62
75794;BME280;64418;47.536;19.074;2023-05-07T01:15:19;100324.94;;;15.38;82.92
75794;BME280;64418;47.536;19.074;2023-05-07T01:17:45;100333.00;;;15.33;84.11
75794;BME280;64418;47.536;19.074;2023-05-07T01:20:11;100335.66;;;15.28;84.25
75794;BME280;64418;47.536;19.074;2023-05-07T01:22:41;100342.03;;;15.22;85.13
75794;BME280;64418;47.536;19.074;2023-05-07T01:25:11;100346.31;;;15.18;85.47
75794;BME280;64418;47.536;19.074;2023-05-07T01:27:37;100345.72;;;15.16;85.22
75794;BME280;64418;47.536;19.074;2023-05-07T01:30:03;100350.47;;;15.09;85.56
75794;BME280;64418;47.536;19.074;2023-05-07T01:32:32;100352.50;;;15.02;85.72
75794;BME280;64418;47.536;19.074;2023-05-07T01:35:03;100353.41;;;14.96;85.96
75794;BME280;64418;47.536;19.074;2023-05-07T01:37:30;100351.03;;;14.88;86.39
75794;BME280;64418;47.536;19.074;2023-05-07T01:40:06;100349.25;;;14.82;86.77
75794;BME280;64418;47.536;19.074;2023-05-07T01:42:33;100347.47;;;14.76;87.32
75794;BME280;64418;47.536;19.074;2023-05-07T01:44:59;100346.28;;;14.72;87.04
75794;BME280;64418;47.536;19.074;2023-05-07T01:47:25;100343.88;;;14.64;87.49
75794;BME280;64418;47.536;19.074;2023-05-07T01:49:53;100350.28;;;14.58;87.57
75794;BME280;64418;47.536;19.074;2023-05-07T01:52:19;100340.78;;;14.49;87.83
75794;BME280;64418;47.536;19.074;2023-05-07T01:54:49;100337.44;;;14.46;87.75
75794;BME280;64418;47.536;19.074;2023-05-07T01:57:18;100338.84;;;14.37;88.21
75794;BME280;64418;47.536;19.074;2023-05-07T01:59:44;100340.34;;;14.33;88.28
75794;BME280;64418;47.536;19.074;2023-05-07T02:02:09;100335.94;;;14.32;88.39
75794;BME280;64418;47.536;19.074;2023-05-07T02:04:35;100329.75;;;14.25;88.52
75794;BME280;64418;47.536;19.074;2023-05-07T02:07:01;100325.94;;;14.15;89.10
75794;BME280;64418;47.536;19.074;2023-05-07T02:09:27;100319.06;;;14.12;89.66
75794;BME280;64418;47.536;19.074;2023-05-07T02:11:56;100316.78;;;14.09;89.70
75794;BME280;64418;47.536;19.074;2023-05-07T02:14:23;100316.66;;;14.04;89.78
75794;BME280;64418;47.536;19.074;2023-05-07T02:16:48;100322.56;;;14.01;89.79
75794;BME280;64418;47.536;19.074;2023-05-07T02:19:14;100320.53;;;13.96;90.23
75794;BME280;64418;47.536;19.074;2023-05-07T02:21:43;100328.91;;;13.95;90.51
75794;BME280;64418;47.536;19.074;2023-05-07T02:24:09;100326.44;;;13.93;90.42
75794;BME280;64418;47.536;19.074;2023-05-07T02:26:35;100329.97;;;13.94;90.34
75794;BME280;64418;47.536;19.074;2023-05-07T02:29:03;100327.88;;;13.96;90.22
75794;BME280;64418;47.536;19.074;2023-05-07T02:31:31;100315.16;;;13.90;90.36
75794;BME280;64418;47.536;19.074;2023-05-07T02:33:56;100318.34;;;13.87;90.35
75794;BME280;64418;47.536;19.074;2023-05-07T02:36:22;100315.03;;;13.85;90.44
75794;BME280;64418;47.536;19.074;2023-05-07T02:38:47;100317.59;;;13.80;90.69
75794;BME280;64418;47.536;19.074;2023-05-07T02:41:13;100314.97;;;13.73;91.01
75794;BME280;64418;47.536;19.074;2023-05-07T02:43:40;100312.75;;;13.64;91.22
75794;BME280;64418;47.536;19.074;2023-05-07T02:46:08;100314.44;;;13.65;91.27
75794;BME280;64418;47.536;19.074;2023-05-07T02:48:36;100320.12;;;13.63;91.43
75794;BME280;64418;47.536;19.074;2023-05-07T02:51:02;100321.38;;;13.61;91.52
75794;BME280;64418;47.536;19.074;2023-05-07T02:53:28;100324.25;;;13.66;91.16
75794;BME280;64418;47.536;19.074;2023-05-07T02:55:56;100325.09;;;13.66;91.09
75794;BME280;64418;47.536;19.074;2023-05-07T02:58:22;100327.66;;;13.61;91.25
75794;BME280;64418;47.536;19.074;2023-05-07T03:00:48;100327.50;;;13.56;91.21
75794;BME280;64418;47.536;19.074;2023-05-07T03:03:13;100326.06;;;13.54;91.44
75794;BME280;64418;47.536;19.074;2023-05-07T03:05:41;100326.06;;;13.54;91.25
75794;BME280;64418;47.536;19.074;2023-05-07T03:08:07;100321.00;;;13.57;91.38
75794;BME280;64418;47.536;19.074;2023-05-07T03:10:33;100321.38;;;13.61;90.86
75794;BME280;64418;47.536;19.074;2023-05-07T03:12:58;100327.66;;;13.61;90.77
75794;BME280;64418;47.536;19.074;2023-05-07T03:15:24;100320.91;;;13.64;90.51
75794;BME280;64418;47.536;19.074;2023-05-07T03:17:50;100320.91;;;13.64;90.48
75794;BME280;64418;47.536;19.074;2023-05-07T03:20:16;100325.31;;;13.65;90.26
75794;BME280;64418;47.536;19.074;2023-05-07T03:22:43;100327.56;;;13.68;89.89
75794;BME280;64418;47.536;19.074;2023-05-07T03:25:09;100328.66;;;13.67;89.71
75794;BME280;64418;47.536;19.074;2023-05-07T03:27:38;100337.19;;;13.70;89.47
75794;BME280;64418;47.536;19.074;2023-05-07T03:30:05;100335.44;;;13.76;89.08
75794;BME280;64418;47.536;19.074;2023-05-07T03:32:34;100317.44;;;13.75;88.56
75794;BME280;64418;47.536;19.074;2023-05-07T03:35:00;100328.03;;;13.83;88.23
75794;BME280;64418;47.536;19.074;2023-05-07T03:37:26;100324.47;;;13.82;87.92
75794;BME280;64418;47.536;19.074;2023-05-07T03:39:53;100333.41;;;13.89;87.55
75794;BME280;64418;47.536;19.074;2023-05-07T03:42:19;100329.84;;;13.89;87.43
75794;BME280;64418;47.536;19.074;2023-05-07T03:44:45;100330.91;;;13.88;87.37
75794;BME280;64418;47.536;19.074;2023-05-07T03:47:10;100326.97;;;13.84;87.37
75794;BME280;64418;47.536;19.074;2023-05-07T03:49:39;100331.94;;;13.87;87.37
75794;BME280;64418;47.536;19.074;2023-05-07T03:52:05;100328.63;;;13.85;87.47
75794;BME280;64418;47.536;19.074;2023-05-07T03:54:31;100333.09;;;13.79;87.71
75794;BME280;64418;47.536;19.074;2023-05-07T03:56:58;100329.16;;;13.75;87.98
75794;BME280;64418;47.536;19.074;2023-05-07T03:59:27;100329.25;;;13.69;88.28
75794;BME280;64418;47.536;19.074;2023-05-07T04:01:53;100333.47;;;13.65;88.43
75794;BME280;64418;47.536;19.074;2023-05-07T04:04:18;100341.44;;;13.66;88.52
75794;BME280;64418;47.536;19.074;2023-05-07T04:06:44;100333.84;;;13.68;88.67
75794;BME280;64418;47.536;19.074;2023-05-07T04:09:11;100341.44;;;13.66;88.75
75794;BME280;64418;47.536;19.074;2023-05-07T04:11:37;100345.00;;;13.67;88.97
75794;BME280;64418;47.536;19.074;2023-05-07T04:14:07;100354.38;;;13.71;88.82
75794;BME280;64418;47.536;19.074;2023-05-07T04:16:36;100351.78;;;13.76;88.86
75794;BME280;64418;47.536;19.074;2023-05-07T04:19:01;100355.13;;;13.78;89.10
75794;BME280;64418;47.536;19.074;2023-05-07T04:21:27;100354.03;;;13.79;89.13
75794;BME280;64418;47.536;19.074;2023-05-07T04:23:54;100354.66;;;13.81;88.94
75794;BME280;64418;47.536;19.074;2023-05-07T04:26:20;100354.66;;;13.81;89.12
75794;BME280;64418;47.536;19.074;2023-05-07T04:28:49;100355.87;;;13.85;88.92
75794;BME280;64418;47.536;19.074;2023-05-07T04:31:16;100367.59;;;13.85;89.30
75794;BME280;64418;47.536;19.074;2023-05-07T04:33:42;100360.84;;;13.88;89.17
75794;BME280;64418;47.536;19.074;2023-05-07T04:36:09;100368.09;;;13.94;88.90
75794;BME280;64418;47.536;19.074;2023-05-07T04:38:34;100368.87;;;14.01;88.65
75794;BME280;64418;47.536;19.074;2023-05-07T04:41:03;100364.53;;;14.12;88.24
75794;BME280;64418;47.536;19.074;2023-05-07T04:43:29;100364.12;;;14.26;87.82
75794;BME280;64418;47.536;19.074;2023-05-07T04:45:55;100372.28;;;14.44;87.17
75794;BME280;64418;47.536;19.074;2023-05-07T04:48:24;100369.13;;;14.59;86.37
75794;BME280;64418;47.536;19.074;2023-05-07T04:50:50;100365.13;;;14.73;85.70
75794;BME280;64418;47.536;19.074;2023-05-07T04:53:17;100367.41;;;14.88;85.08
75794;BME280;64418;47.536;19.074;2023-05-07T04:55:43;100364.25;;;15.03;84.38
75794;BME280;64418;47.536;19.074;2023-05-07T04:58:09;100367.78;;;15.15;83.62
75794;BME280;64418;47.536;19.074;2023-05-07T05:00:35;100368.41;;;15.40;82.70
75794;BME280;64418;47.536;19.074;2023-05-07T05:03:03;100373.13;;;15.68;81.32
75794;BME280;64418;47.536;19.074;2023-05-07T05:05:30;100380.47;;;15.79;80.53
75794;BME280;64418;47.536;19.074;2023-05-07T05:07:56;100375.75;;;15.86;80.22
75794;BME280;64418;47.536;19.074;2023-05-07T05:10:22;100381.62;;;15.95;79.77
75794;BME280;64418;47.536;19.074;2023-05-07T05:12:47;100382.00;;;15.98;79.54
75794;BME280;64418;47.536;19.074;2023-05-07T05:15:13;100383.88;;;15.98;79.56
75794;BME280;64418;47.536;19.074;2023-05-07T05:17:39;100379.75;;;15.95;79.68
75794;BME280;64418;47.536;19.074;2023-05-07T05:20:06;100388.53;;;15.97;79.66
75794;BME280;64418;47.536;19.074;2023-05-07T05:22:33;100385.06;;;16.02;79.40
75794;BME280;64418;47.536;19.074;2023-05-07T05:24:58;100396.56;;;16.15;78.85
75794;BME280;64418;47.536;19.074;2023-05-07T05:27:24;100382.53;;;16.23;78.40
75794;BME280;64418;47.536;19.074;2023-05-07T05:29:50;100390.47;;;16.25;78.55
75794;BME280;64418;47.536;19.074;2023-05-07T05:32:16;100392.81;;;16.33;78.45
75794;BME280;64418;47.536;19.074;2023-05-07T05:34:42;100390.41;;;16.36;78.41
75794;BME280;64418;47.536;19.074;2023-05-07T05:37:08;100395.66;;;16.38;78.29
75794;BME280;64418;47.536;19.074;2023-05-07T05:39:36;100395.94;;;16.25;78.56
75794;BME280;64418;47.536;19.074;2023-05-07T05:42:03;100384.16;;;16.24;78.69
75794;BME280;64418;47.536;19.074;2023-05-07T05:44:29;100393.53;;;16.28;78.74
75794;BME280;64418;47.536;19.074;2023-05-07T05:46:55;100382.31;;;16.42;78.35
75794;BME280;64418;47.536;19.074;2023-05-07T05:49:21;100381.94;;;16.50;78.16
75794;BME280;64418;47.536;19.074;2023-05-07T05:51:53;100381.91;;;16.61;77.70
75794;BME280;64418;47.536;19.074;2023-05-07T05:54:19;100383.31;;;16.64;77.11
75794;BME280;64418;47.536;19.074;2023-05-07T05:56:46;100379.97;;;16.62;77.18
75794;BME280;64418;47.536;19.074;2023-05-07T05:59:15;100382.47;;;16.63;77.19
75794;BME280;64418;47.536;19.074;2023-05-07T06:01:41;100378.44;;;16.82;76.38
75794;BME280;64418;47.536;19.074;2023-05-07T06:04:10;100391.00;;;16.95;76.14
75794;BME280;64418;47.536;19.074;2023-05-07T06:06:36;100380.72;;;17.02;75.63
75794;BME280;64418;47.536;19.074;2023-05-07T06:09:02;100381.88;;;17.06;75.49
75794;BME280;64418;47.536;19.074;2023-05-07T06:11:28;100367.94;;;17.24;74.72
75794;BME280;64418;47.536;19.074;2023-05-07T06:13:55;100366.25;;;17.40;74.29
75794;BME280;64418;47.536;19.074;2023-05-07T06:16:21;100369.37;;;17.49;73.49
75794;BME280;64418;47.536;19.074;2023-05-07T06:18:47;100365.47;;;17.61;73.35
75794;BME280;64418;47.536;19.074;2023-05-07T06:21:13;100374.09;;;17.70;72.82
75794;BME280;64418;47.536;19.074;2023-05-07T06:23:39;100378.00;;;17.74;72.17
75794;BME280;64418;47.536;19.074;2023-05-07T06:26:05;100372.97;;;17.88;71.72
75794;BME280;64418;47.536;19.074;2023-05-07T06:28:30;100384.88;;;17.98;71.31
75794;BME280;64418;47.536;19.074;2023-05-07T06:31:11;100386.34;;;18.06;70.81
75794;BME280;64418;47.536;19.074;2023-05-07T06:33:40;100385.31;;;18.34;70.80
75794;BME280;64418;47.536;19.074;2023-05-07T06:36:06;100387.03;;;18.40;69.89
75794;BME280;64418;47.536;19.074;2023-05-07T06:38:32;100390.16;;;18.48;68.82
75794;BME280;64418;47.536;19.074;2023-05-07T06:40:58;100397.13;;;18.56;69.17
75794;BME280;64418;47.536;19.074;2023-05-07T06:43:25;100391.78;;;18.71;68.67
75794;BME280;64418;47.536;19.074;2023-05-07T06:45:52;100395.41;;;19.08;67.08
75794;BME280;64418;47.536;19.074;2023-05-07T06:48:19;100388.66;;;19.21;66.24
75794;BME280;64418;47.536;19.074;2023-05-07T06:50:45;100385.47;;;19.76;64.64
75794;BME280;64418;47.536;19.074;2023-05-07T06:53:10;100384.59;;;20.12;63.16
75794;BME280;64418;47.536;19.074;2023-05-07T06:55:39;100387.44;;;20.38;61.48
75794;BME280;64418;47.536;19.074;2023-05-07T06:58:05;100385.56;;;20.58;60.48
75794;BME280;64418;47.536;19.074;2023-05-07T07:00:30;100391.41;;;20.97;58.72
75794;BME280;64418;47.536;19.074;2023-05-07T07:02:56;100388.09;;;21.05;57.91
75794;BME280;64418;47.536;19.074;2023-05-07T07:05:24;100388.66;;;21.43;57.96
75794;BME280;64418;47.536;19.074;2023-05-07T07:07:52;100396.34;;;21.61;57.68
75794;BME280;64418;47.536;19.074;2023-05-07T07:10:17;100393.66;;;21.26;58.35
75794;BME280;64418;47.536;19.074;2023-05-07T07:12:43;100391.62;;;21.77;57.39
75794;BME280;64418;47.536;19.074;2023-05-07T07:15:10;100389.63;;;22.07;56.96
75794;BME280;64418;47.536;19.074;2023-05-07T07:17:37;100394.62;;;22.05;57.13
75794;BME280;64418;47.536;19.074;2023-05-07T07:20:03;100397.13;;;22.56;55.17
75794;BME280;64418;47.536;19.074;2023-05-07T07:22:31;100395.16;;;23.06;53.90
75794;BME280;64418;47.536;19.074;2023-05-07T07:24:57;100407.56;;;23.47;52.60
75794;BME280;64418;47.536;19.074;2023-05-07T07:27:23;100403.69;;;22.70;53.63
75794;BME280;64418;47.536;19.074;2023-05-07T07:29:49;100409.78;;;22.03;55.01
75794;BME280;64418;47.536;19.074;2023-05-07T07:32:14;100411.47;;;21.89;55.50
75794;BME280;64418;47.536;19.074;2023-05-07T07:34:40;100416.16;;;21.83;56.01
75794;BME280;64418;47.536;19.074;2023-05-07T07:37:07;100410.69;;;21.53;56.84
75794;BME280;64418;47.536;19.074;2023-05-07T07:39:35;100413.13;;;21.95;55.81
75794;BME280;64418;47.536;19.074;2023-05-07T07:42:01;100414.47;;;22.02;55.44
75794;BME280;64418;47.536;19.074;2023-05-07T07:44:27;100414.78;;;22.01;55.08
75794;BME280;64418;47.536;19.074;2023-05-07T07:46:53;100421.91;;;22.12;54.55
75794;BME280;64418;47.536;19.074;2023-05-07T07:49:19;100425.59;;;22.51;53.49
75794;BME280;64418;47.536;19.074;2023-05-07T07:51:46;100426.34;;;22.77;52.90
75794;BME280;64418;47.536;19.074;2023-05-07T07:54:11;100425.22;;;23.17;51.89
75794;BME280;64418;47.536;19.074;2023-05-07T07:56:39;100432.06;;;23.25;51.40
75794;BME280;64418;47.536;19.074;2023-05-07T07:59:06;100431.72;;;23.65;50.38
75794;BME280;64418;47.536;19.074;2023-05-07T08:01:32;100432.66;;;23.79;49.75
75794;BME280;64418;47.536;19.074;2023-05-07T08:03:58;100427.84;;;23.66;50.03
75794;BME280;64418;47.536;19.074;2023-05-07T08:06:25;100435.34;;;23.61;49.55
75794;BME280;64418;47.536;19.074;2023-05-07T08:08:50;100430.09;;;23.64;49.65
75794;BME280;64418;47.536;19.074;2023-05-07T08:11:16;100431.09;;;23.73;50.02
75794;BME280;64418;47.536;19.074;2023-05-07T08:13:44;100427.59;;;23.29;49.76
75794;BME280;64418;47.536;19.074;2023-05-07T08:18:35;100432.22;;;23.38;49.40
75794;BME280;64418;47.536;19.074;2023-05-07T08:21:01;100425.44;;;23.21;47.89
75794;BME280;64418;47.536;19.074;2023-05-07T08:23:27;100425.53;;;23.11;48.79
75794;BME280;64418;47.536;19.074;2023-05-07T08:25:53;100422.28;;;23.03;48.46
75794;BME280;64418;47.536;19.074;2023-05-07T08:28:19;100415.00;;;22.74;47.59
75794;BME280;64418;47.536;19.074;2023-05-07T08:30:46;100419.00;;;22.96;47.76
75794;BME280;64418;47.536;19.074;2023-05-07T08:33:12;100416.06;;;22.78;48.62
75794;BME280;64418;47.536;19.074;2023-05-07T08:35:41;100413.06;;;22.74;48.59
75794;BME280;64418;47.536;19.074;2023-05-07T08:38:07;100413.94;;;22.60;49.34
75794;BME280;64418;47.536;19.074;2023-05-07T08:40:36;100408.16;;;22.61;48.46
75794;BME280;64418;47.536;19.074;2023-05-07T08:43:03;100417.53;;;22.65;48.31
75794;BME280;64418;47.536;19.074;2023-05-07T08:45:33;100414.44;;;22.77;48.40
75794;BME280;64418;47.536;19.074;2023-05-07T08:48:02;100413.63;;;22.66;47.96
75794;BME280;64418;47.536;19.074;2023-05-07T08:50:28;100407.38;;;22.99;47.32
75794;BME280;64418;47.536;19.074;2023-05-07T08:52:55;100412.81;;;23.48;45.77
75794;BME280;64418;47.536;19.074;2023-05-07T08:55:21;100420.16;;;23.58;44.44
75794;BME280;64418;47.536;19.074;2023-05-07T08:57:47;100422.97;;;23.53;44.58
75794;BME280;64418;47.536;19.074;2023-05-07T09:00:14;100421.56;;;23.84;43.85
75794;BME280;64418;47.536;19.074;2023-05-07T09:02:40;100415.22;;;24.08;42.27
75794;BME280;64418;47.536;19.074;2023-05-07T09:05:08;100426.72;;;23.67;41.61
75794;BME280;64418;47.536;19.074;2023-05-07T09:07:36;100418.69;;;23.94;41.31
75794;BME280;64418;47.536;19.074;2023-05-07T09:10:06;100417.06;;;24.17;40.94
75794;BME280;64418;47.536;19.074;2023-05-07T09:12:32;100417.03;;;25.02;39.14
75794;BME280;64418;47.536;19.074;2023-05-07T09:14:58;100413.09;;;26.00;37.17
75794;BME280;64418;47.536;19.074;2023-05-07T09:17:24;100411.78;;;26.74;35.63
75794;BME280;64418;47.536;19.074;2023-05-07T09:19:50;100418.47;;;27.67;34.79
75794;BME280;64418;47.536;19.074;2023-05-07T09:22:18;100415.44;;;28.17;33.84
75794;BME280;64418;47.536;19.074;2023-05-07T09:24:47;100426.59;;;27.86;35.07
75794;BME280;64418;47.536;19.074;2023-05-07T09:27:13;100413.03;;;27.40;36.23
75794;BME280;64418;47.536;19.074;2023-05-07T09:29:39;100421.50;;;27.35;36.93
75794;BME280;64418;47.536;19.074;2023-05-07T09:32:05;100419.97;;;28.52;34.06
75794;BME280;64418;47.536;19.074;2023-05-07T09:34:32;100415.72;;;27.76;35.13
75794;BME280;64418;47.536;19.074;2023-05-07T09:37:00;100411.47;;;27.79;35.55
75794;BME280;64418;47.536;19.074;2023-05-07T09:39:39;100409.53;;;28.18;34.19
75794;BME280;64418;47.536;19.074;2023-05-07T09:42:05;100409.87;;;27.33;35.17
75794;BME280;64418;47.536;19.074;2023-05-07T09:44:32;100408.50;;;28.54;34.31
75794;BME280;64418;47.536;19.074;2023-05-07T09:46:59;100415.94;;;29.53;32.55
75794;BME280;64418;47.536;19.074;2023-05-07T09:49:29;100415.78;;;28.98;33.92
75794;BME280;64418;47.536;19.074;2023-05-07T09:51:55;100426.66;;;28.43;34.85
75794;BME280;64418;47.536;19.074;2023-05-07T09:54:21;100408.56;;;29.31;32.63
75794;BME280;64418;47.536;19.074;2023-05-07T09:56:49;100407.88;;;29.17;32.22
75794;BME280;64418;47.536;19.074;2023-05-07T09:59:16;100412.59;;;27.47;34.37
75794;BME280;64418;47.536;19.074;2023-05-07T10:01:43;100411.06;;;26.82;35.83
75794;BME280;64418;47.536;19.074;2023-05-07T10:04:10;100414.34;;;26.21;36.83
75794;BME280;64418;47.536;19.074;2023-05-07T10:06:37;100418.34;;;25.23;39.25
75794;BME280;64418;47.536;19.074;2023-05-07T10:09:04;100419.44;;;25.41;39.30
75794;BME280;64418;47.536;19.074;2023-05-07T10:11:30;100409.53;;;25.35;39.71
75794;BME280;64418;47.536;19.074;2023-05-07T10:14:00;100412.69;;;25.15;38.15
75794;BME280;64418;47.536;19.074;2023-05-07T10:16:27;100410.81;;;24.91;38.57
75794;BME280;64418;47.536;19.074;2023-05-07T10:18:54;100409.59;;;24.60;40.38
75794;BME280;64418;47.536;19.074;2023-05-07T10:21:23;100410.47;;;24.56;40.97
75794;BME280;64418;47.536;19.074;2023-05-07T10:23:53;100407.25;;;23.77;43.05
75794;BME280;64418;47.536;19.074;2023-05-07T10:26:23;100404.16;;;23.55;43.33
75794;BME280;64418;47.536;19.074;2023-05-07T10:28:54;100407.97;;;23.64;43.48
75794;BME280;64418;47.536;19.074;2023-05-07T10:31:49;100407.72;;;23.84;43.24
75794;BME280;64418;47.536;19.074;2023-05-07T10:34:22;100404.09;;;23.89;43.39
75794;BME280;64418;47.536;19.074;2023-05-07T10:36:49;100401.62;;;24.35;41.80
75794;BME280;64418;47.536;19.074;2023-05-07T10:39:20;100406.16;;;24.68;40.65
75794;BME280;64418;47.536;19.074;2023-05-07T10:41:46;100409.16;;;25.87;37.55
75794;BME280;64418;47.536;19.074;2023-05-07T10:44:25;100402.50;;;25.88;36.66
75794;BME280;64418;47.536;19.074;2023-05-07T10:47:09;100409.03;;;25.65;36.95
75794;BME280;64418;47.536;19.074;2023-05-07T10:49:36;100406.00;;;25.48;37.47
75794;BME280;64418;47.536;19.074;2023-05-07T10:52:12;100406.22;;;25.01;39.00
75794;BME280;64418;47.536;19.074;2023-05-07T10:54:38;100399.19;;;24.89;40.29
75794;BME280;64418;47.536;19.074;2023-05-07T10:57:34;100401.59;;;24.96;39.86
75794;BME280;64418;47.536;19.074;2023-05-07T11:00:00;100402.38;;;24.59;42.23
75794;BME280;64418;47.536;19.074;2023-05-07T11:03:06;100399.94;;;24.58;42.44
75794;BME280;64418;47.536;19.074;2023-05-07T11:05:33;100397.59;;;24.83;41.92
75794;BME280;64418;47.536;19.074;2023-05-07T11:08:00;100401.16;;;26.00;38.98
75794;BME280;64418;47.536;19.074;2023-05-07T11:10:52;100395.56;;;27.70;36.08
75794;BME280;64418;47.536;19.074;2023-05-07T11:13:40;100407.81;;;28.48;33.89
75794;BME280;64418;47.536;19.074;2023-05-07T11:16:05;100401.06;;;29.87;31.41
75794;BME280;64418;47.536;19.074;2023-05-07T11:18:57;100396.09;;;29.84;30.54
75794;BME280;64418;47.536;19.074;2023-05-07T11:21:35;100405.09;;;30.36;29.90
75794;BME280;64418;47.536;19.074;2023-05-07T11:24:01;100404.03;;;31.97;27.36
75794;BME280;64418;47.536;19.074;2023-05-07T11:26:32;100403.09;;;34.37;24.05
75794;BME280;64418;47.536;19.074;2023-05-07T11:29:11;100408.56;;;31.78;27.51
75794;BME280;64418;47.536;19.074;2023-05-07T11:31:40;100397.16;;;33.08;26.04
75794;BME280;64418;47.536;19.074;2023-05-07T11:34:08;100394.13;;;30.81;28.32
75794;BME280;64418;47.536;19.074;2023-05-07T11:36:36;100404.09;;;30.90;28.33
75794;BME280;64418;47.536;19.074;2023-05-07T11:39:23;100402.34;;;31.60;27.55
75794;BME280;64418;47.536;19.074;2023-05-07T11:41:49;100382.97;;;33.16;25.53
75794;BME280;64418;47.536;19.074;2023-05-07T11:44:14;100392.47;;;32.60;25.60
75794;BME280;64418;47.536;19.074;2023-05-07T11:46:43;100390.72;;;31.17;27.50
75794;BME280;64418;47.536;19.074;2023-05-07T11:49:10;100387.19;;;33.22;24.77
75794;BME280;64418;47.536;19.074;2023-05-07T11:51:37;100394.59;;;34.17;23.73
75794;BME280;64418;47.536;19.074;2023-05-07T11:54:03;100388.94;;;31.78;26.29
75794;BME280;64418;47.536;19.074;2023-05-07T11:56:34;100388.66;;;30.84;27.28
75794;BME280;64418;47.536;19.074;2023-05-07T11:59:00;100389.03;;;31.36;27.11
75794;BME280;64418;47.536;19.074;2023-05-07T12:01:26;100378.75;;;30.37;28.00
75794;BME280;64418;47.536;19.074;2023-05-07T12:03:55;100378.31;;;30.05;27.91
75794;BME280;64418;47.536;19.074;2023-05-07T12:06:22;100379.56;;;30.17;28.01
75794;BME280;64418;47.536;19.074;2023-05-07T12:08:48;100374.81;;;29.71;29.23
75794;BME280;64418;47.536;19.074;2023-05-07T12:11:15;100375.94;;;29.70;29.46
75794;BME280;64418;47.536;19.074;2023-05-07T12:13:44;100373.81;;;30.13;28.73
75794;BME280;64418;47.536;19.074;2023-05-07T12:16:10;100367.66;;;29.35;29.81
75794;BME280;64418;47.536;19.074;2023-05-07T12:18:37;100362.03;;;27.31;33.15
75794;BME280;64418;47.536;19.074;2023-05-07T12:21:04;100370.72;;;26.71;34.18
75794;BME280;64418;47.536;19.074;2023-05-07T12:23:32;100372.28;;;27.44;33.18
75794;BME280;64418;47.536;19.074;2023-05-07T12:25:59;100369.13;;;27.99;32.37
75794;BME280;64418;47.536;19.074;2023-05-07T12:28:25;100365.84;;;27.35;33.07
75794;BME280;64418;47.536;19.074;2023-05-07T12:30:51;100364.12;;;28.18;31.58
75794;BME280;64418;47.536;19.074;2023-05-07T12:33:18;100363.31;;;28.09;31.61
75794;BME280;64418;47.536;19.074;2023-05-07T12:35:44;100361.63;;;27.68;31.01
75794;BME280;64418;47.536;19.074;2023-05-07T12:38:13;100370.62;;;27.65;31.29
75794;BME280;64418;47.536;19.074;2023-05-07T12:40:43;100362.50;;;28.17;30.48
75794;BME280;64418;47.536;19.074;2023-05-07T12:43:15;100370.81;;;28.74;29.70
75794;BME280;64418;47.536;19.074;2023-05-07T12:45:41;100360.72;;;28.21;31.72